Time,TemperatureF,DewpointF,PressureIn,WindDirection,WindDirectionDegrees,WindSpeedMPH,WindSpeedGustMPH,Humidity,HourlyPrecipIn,Conditions,Clouds,dailyrainin,SoftwareType,DateUTC
2013-07-27 00:00:00,79.9,78.3,30.00,SW,234,0.0,1.0,95,0.00,,,0.00,WUHU216DAVISVP2,2013-07-27 04:00:00,
2013-07-27 00:01:00,79.9,78.3,30.01,SW,234,0.0,1.0,95,0.00,,,0.00,WUHU216DAVISVP2,2013-07-27 04:01:00,
2013-07-27 00:02:00,79.9,78.3,30.01,SW,234,0.0,1.0,95,0.00,,,0.00,WUHU216DAVISVP2,2013-07-27 04:02:00,
2013-07-27 00:07:00,79.9,78.3,30.00,SW,234,0.0,0.0,95,0.00,,,0.00,WUHU216DAVISVP2,2013-07-27 04:07:00,
2013-07-27 00:12:00,79.9,78.3,30.01,SW,234,0.0,0.0,95,0.00,,,0.00,WUHU216DAVISVP2,2013-07-27 04:12:00,
2013-07-27 00:17:00,79.8,78.2,30.01,SW,234,0.0,0.0,95,0.00,,,0.00,WUHU216DAVISVP2,2013-07-27 04:17:00,
2013-07-27 00:22:00,79.8,78.2,30.01,SW,234,0.0,0.0,95,0.00,,,0.00,WUHU216DAVISVP2,2013-07-27 04:22:00,
2013-07-27 00:27:00,79.8,78.2,30.00,SW,234,0.0,0.0,95,0.00,,,0.00,WUHU216DAVISVP2,2013-07-27 04:27:00,
2013-07-27 00:32:00,79.8,78.2,30.00,SW,234,0.0,0.0,95,0.00,,,0.00,WUHU216DAVISVP2,2013-07-27 04:32:00,
2013-07-27 00:37:00,79.7,78.1,30.00,SW,234,0.0,0.0,95,0.00,,,0.00,WUHU216DAVISVP2,2013-07-27 04:37:00,
2013-07-27 00:42:00,79.7,78.1,30.00,SW,234,0.0,0.0,95,0.00,,,0.00,WUHU216DAVISVP2,2013-07-27 04:42:00,
2013-07-27 00:47:00,79.7,78.1,30.00,SW,234,0.0,0.0,95,0.00,,,0.00,WUHU216DAVISVP2,2013-07-27 04:47:00,
2013-07-27 00:52:00,79.6,78.0,30.00,SW,234,0.0,0.0,95,0.00,,,0.00,WUHU216DAVISVP2,2013-07-27 04:52:00,
2013-07-27 00:57:00,79.6,78.0,30.00,SW,234,0.0,0.0,95,0.00,,,0.00,WUHU216DAVISVP2,2013-07-27 04:57:00,
2013-07-27 01:02:00,79.6,78.0,30.00,SW,234,0.0,0.0,95,0.00,,,0.00,WUHU216DAVISVP2,2013-07-27 05:02:00,
2013-07-27 01:07:00,79.6,78.0,30.00,SW,234,0.0,0.0,95,0.00,,,0.00,WUHU216DAVISVP2,2013-07-27 05:07:00,
2013-07-27 01:12:00,79.6,78.0,30.00,SW,234,0.0,0.0,95,0.00,,,0.00,WUHU216DAVISVP2,2013-07-27 05:12:00,
2013-07-27 01:17:00,79.6,78.0,29.99,SW,234,0.0,0.0,95,0.00,,,0.00,WUHU216DAVISVP2,2013-07-27 05:17:00,
2013-07-27 01:22:00,79.6,78.0,30.00,SW,234,0.0,0.0,95,0.00,,,0.00,WUHU216DAVISVP2,2013-07-27 05:22:00,
2013-07-27 01:27:00,79.5,77.9,29.99,SW,234,0.0,0.0,95,0.00,,,0.00,WUHU216DAVISVP2,2013-07-27 05:27:00,
2013-07-27 01:32:00,79.5,77.9,29.99,SW,234,0.0,0.0,95,0.00,,,0.00,WUHU216DAVISVP2,2013-07-27 05:32:00,
2013-07-27 01:37:00,79.5,77.9,29.99,SW,233,0.0,0.0,95,0.00,,,0.00,WUHU216DAVISVP2,2013-07-27 05:37:00,
2013-07-27 01:42:00,79.4,77.8,29.99,SW,233,0.0,0.0,95,0.00,,,0.00,WUHU216DAVISVP2,2013-07-27 05:42:00,
2013-07-27 01:47:00,79.4,77.8,29.99,SW,233,0.0,0.0,95,0.00,,,0.00,WUHU216DAVISVP2,2013-07-27 05:47:00,
2013-07-27 01:52:00,79.4,77.8,29.99,SW,233,0.0,0.0,95,0.00,,,0.00,WUHU216DAVISVP2,2013-07-27 05:52:00,
2013-07-27 01:57:00,79.4,77.8,29.99,SW,233,0.0,0.0,95,0.00,,,0.00,WUHU216DAVISVP2,2013-07-27 05:57:00,
2013-07-27 02:02:00,79.4,77.8,29.98,SW,233,0.0,0.0,95,0.00,,,0.00,WUHU216DAVISVP2,2013-07-27 06:02:00,
2013-07-27 02:07:00,79.3,77.7,29.98,SW,232,0.0,0.0,95,0.00,,,0.00,WUHU216DAVISVP2,2013-07-27 06:07:00,
2013-07-27 02:12:00,79.3,77.7,29.98,SW,232,0.0,0.0,95,0.00,,,0.00,WUHU216DAVISVP2,2013-07-27 06:12:00,
2013-07-27 02:17:00,79.3,77.7,29.98,SW,232,0.0,0.0,95,0.00,,,0.00,WUHU216DAVISVP2,2013-07-27 06:17:00,
2013-07-27 02:22:00,79.2,77.6,29.98,SW,232,0.0,0.0,95,0.00,,,0.00,WUHU216DAVISVP2,2013-07-27 06:22:00,
2013-07-27 02:27:00,79.1,77.5,29.98,SW,232,0.0,0.0,95,0.00,,,0.00,WUHU216DAVISVP2,2013-07-27 06:27:00,
2013-07-27 02:32:00,79.0,77.4,29.98,SW,232,0.0,0.0,95,0.00,,,0.00,WUHU216DAVISVP2,2013-07-27 06:32:00,
2013-07-27 02:37:00,78.9,77.3,29.98,SW,231,0.0,0.0,95,0.00,,,0.00,WUHU216DAVISVP2,2013-07-27 06:37:00,
2013-07-27 02:42:00,78.8,77.2,29.97,SW,231,0.0,0.0,95,0.00,,,0.00,WUHU216DAVISVP2,2013-07-27 06:42:00,
2013-07-27 02:47:00,78.7,77.1,29.97,SW,230,0.0,0.0,95,0.00,,,0.00,WUHU216DAVISVP2,2013-07-27 06:47:00,
2013-07-27 02:52:00,78.6,77.0,29.97,SW,230,0.0,0.0,95,0.00,,,0.00,WUHU216DAVISVP2,2013-07-27 06:52:00,
2013-07-27 02:57:00,78.5,76.9,29.97,SW,230,0.0,0.0,95,0.00,,,0.00,WUHU216DAVISVP2,2013-07-27 06:57:00,
2013-07-27 03:02:00,78.4,77.1,29.97,SW,229,0.0,0.0,96,0.00,,,0.00,WUHU216DAVISVP2,2013-07-27 07:02:00,
2013-07-27 03:07:00,78.2,76.9,29.97,SW,229,0.0,0.0,96,0.00,,,0.00,WUHU216DAVISVP2,2013-07-27 07:07:00,
2013-07-27 03:12:00,78.1,76.8,29.96,WSW,243,0.0,0.0,96,0.00,,,0.00,WUHU216DAVISVP2,2013-07-27 07:12:00,
2013-07-27 03:17:00,78.1,76.8,29.96,WSW,244,0.0,0.0,96,0.00,,,0.00,WUHU216DAVISVP2,2013-07-27 07:17:00,
2013-07-27 03:22:00,78.1,77.2,29.96,WSW,244,0.0,0.0,97,0.00,,,0.00,WUHU216DAVISVP2,2013-07-27 07:22:00,
2013-07-27 03:27:00,78.0,76.7,29.96,WSW,244,0.0,0.0,96,0.00,,,0.00,WUHU216DAVISVP2,2013-07-27 07:27:00,
2013-07-27 03:32:00,78.0,77.1,29.95,WSW,244,0.0,0.0,97,0.00,,,0.00,WUHU216DAVISVP2,2013-07-27 07:32:00,
2013-07-27 03:37:00,78.0,77.1,29.95,WSW,244,0.0,0.0,97,0.00,,,0.00,WUHU216DAVISVP2,2013-07-27 07:37:00,
2013-07-27 03:42:00,78.0,77.1,29.95,WSW,244,0.0,0.0,97,0.00,,,0.00,WUHU216DAVISVP2,2013-07-27 07:42:00,
2013-07-27 03:47:00,77.9,77.0,29.95,WSW,244,0.0,0.0,97,0.00,,,0.00,WUHU216DAVISVP2,2013-07-27 07:47:00,
2013-07-27 03:52:00,77.8,76.9,29.95,WSW,244,0.0,0.0,97,0.00,,,0.00,WUHU216DAVISVP2,2013-07-27 07:52:00,
2013-07-27 03:57:00,77.8,76.9,29.95,WSW,244,0.0,0.0,97,0.00,,,0.00,WUHU216DAVISVP2,2013-07-27 07:57:00,
2013-07-27 04:02:00,77.7,76.8,29.95,WSW,244,0.0,0.0,97,0.00,,,0.00,WUHU216DAVISVP2,2013-07-27 08:02:00,
2013-07-27 04:07:00,77.6,76.7,29.95,WSW,244,0.0,0.0,97,0.00,,,0.00,WUHU216DAVISVP2,2013-07-27 08:07:00,
2013-07-27 04:12:00,77.5,76.6,29.94,WSW,244,0.0,0.0,97,0.00,,,0.00,WUHU216DAVISVP2,2013-07-27 08:12:00,
2013-07-27 04:17:00,77.4,76.5,29.95,WSW,244,0.0,0.0,97,0.00,,,0.00,WUHU216DAVISVP2,2013-07-27 08:17:00,
2013-07-27 04:22:00,77.3,76.4,29.95,WSW,244,0.0,0.0,97,0.00,,,0.00,WUHU216DAVISVP2,2013-07-27 08:22:00,
2013-07-27 04:27:00,77.2,76.3,29.95,WSW,244,0.0,0.0,97,0.00,,,0.00,WUHU216DAVISVP2,2013-07-27 08:27:00,
2013-07-27 04:32:00,77.2,76.3,29.95,WSW,244,0.0,0.0,97,0.00,,,0.00,WUHU216DAVISVP2,2013-07-27 08:32:00,
2013-07-27 04:37:00,77.1,76.2,29.95,WSW,244,0.0,0.0,97,0.00,,,0.00,WUHU216DAVISVP2,2013-07-27 08:37:00,
2013-07-27 04:42:00,77.0,76.1,29.95,WSW,244,0.0,0.0,97,0.00,,,0.00,WUHU216DAVISVP2,2013-07-27 08:42:00,
2013-07-27 04:47:00,76.9,76.0,29.95,WSW,244,0.0,0.0,97,0.00,,,0.00,WUHU216DAVISVP2,2013-07-27 08:47:00,
2013-07-27 04:52:00,76.8,75.9,29.95,WSW,244,0.0,0.0,97,0.00,,,0.00,WUHU216DAVISVP2,2013-07-27 08:52:00,
2013-07-27 04:57:00,76.7,75.8,29.95,WSW,244,0.0,0.0,97,0.00,,,0.00,WUHU216DAVISVP2,2013-07-27 08:57:00,
2013-07-27 05:02:00,76.6,75.7,29.95,WSW,244,0.0,0.0,97,0.00,,,0.00,WUHU216DAVISVP2,2013-07-27 09:02:00,
2013-07-27 05:07:00,76.6,75.7,29.95,WSW,244,0.0,0.0,97,0.00,,,0.00,WUHU216DAVISVP2,2013-07-27 09:07:00,
2013-07-27 05:12:00,76.5,75.6,29.95,WSW,244,0.0,0.0,97,0.00,,,0.00,WUHU216DAVISVP2,2013-07-27 09:12:00,
2013-07-27 05:17:00,76.4,75.5,29.95,WSW,244,0.0,0.0,97,0.00,,,0.00,WUHU216DAVISVP2,2013-07-27 09:17:00,
2013-07-27 05:22:00,76.3,75.4,29.95,WSW,244,0.0,0.0,97,0.00,,,0.00,WUHU216DAVISVP2,2013-07-27 09:22:00,
2013-07-27 05:27:00,76.2,75.3,29.96,WSW,244,0.0,0.0,97,0.00,,,0.00,WUHU216DAVISVP2,2013-07-27 09:27:00,
2013-07-27 05:32:00,76.3,75.4,29.96,WSW,244,0.0,0.0,97,0.00,,,0.00,WUHU216DAVISVP2,2013-07-27 09:32:00,
2013-07-27 05:37:00,76.2,75.3,29.96,WSW,244,0.0,0.0,97,0.00,,,0.00,WUHU216DAVISVP2,2013-07-27 09:37:00,
2013-07-27 05:42:00,76.1,75.2,29.96,WSW,244,0.0,0.0,97,0.00,,,0.00,WUHU216DAVISVP2,2013-07-27 09:42:00,
2013-07-27 05:47:00,76.2,75.3,29.96,WSW,244,0.0,0.0,97,0.00,,,0.00,WUHU216DAVISVP2,2013-07-27 09:47:00,
2013-07-27 05:52:00,76.1,75.5,29.96,WSW,244,0.0,0.0,98,0.00,,,0.00,WUHU216DAVISVP2,2013-07-27 09:52:00,
2013-07-27 05:57:00,76.2,75.6,29.97,WSW,244,0.0,0.0,98,0.00,,,0.00,WUHU216DAVISVP2,2013-07-27 09:57:00,
2013-07-27 06:02:00,76.1,75.5,29.97,WSW,244,0.0,0.0,98,0.00,,,0.00,WUHU216DAVISVP2,2013-07-27 10:02:00,
2013-07-27 06:07:00,76.2,75.6,29.97,WSW,244,0.0,0.0,98,0.00,,,0.00,WUHU216DAVISVP2,2013-07-27 10:07:00,
2013-07-27 06:12:00,76.2,75.6,29.97,WSW,244,0.0,0.0,98,0.00,,,0.00,WUHU216DAVISVP2,2013-07-27 10:12:00,
2013-07-27 06:17:00,76.2,75.6,29.97,WSW,244,0.0,0.0,98,0.00,,,0.00,WUHU216DAVISVP2,2013-07-27 10:17:00,
2013-07-27 06:22:00,76.2,75.6,29.97,WSW,244,0.0,0.0,98,0.00,,,0.00,WUHU216DAVISVP2,2013-07-27 10:22:00,
2013-07-27 06:27:00,76.1,75.5,29.97,WSW,244,0.0,0.0,98,0.00,,,0.00,WUHU216DAVISVP2,2013-07-27 10:27:00,
2013-07-27 06:32:00,76.2,75.6,29.97,WSW,244,0.0,0.0,98,0.00,,,0.00,WUHU216DAVISVP2,2013-07-27 10:32:00,
2013-07-27 06:37:00,76.2,75.6,29.97,WSW,244,0.0,0.0,98,0.00,,,0.00,WUHU216DAVISVP2,2013-07-27 10:37:00,
2013-07-27 06:42:00,76.2,75.6,29.97,WSW,244,0.0,0.0,98,0.00,,,0.00,WUHU216DAVISVP2,2013-07-27 10:42:00,
2013-07-27 06:47:00,76.2,75.6,29.97,WSW,244,0.0,0.0,98,0.00,,,0.00,WUHU216DAVISVP2,2013-07-27 10:47:00,
2013-07-27 06:52:00,76.1,75.5,29.97,WSW,244,0.0,0.0,98,0.00,,,0.00,WUHU216DAVISVP2,2013-07-27 10:52:00,
2013-07-27 06:57:00,76.1,75.5,29.97,WSW,244,0.0,0.0,98,0.00,,,0.00,WUHU216DAVISVP2,2013-07-27 10:57:00,
2013-07-27 07:02:00,76.1,75.5,29.97,WSW,244,0.0,0.0,98,0.00,,,0.00,WUHU216DAVISVP2,2013-07-27 11:02:00,
2013-07-27 07:07:00,76.1,75.5,29.97,WSW,244,0.0,0.0,98,0.00,,,0.00,WUHU216DAVISVP2,2013-07-27 11:07:00,
2013-07-27 07:12:00,76.1,75.5,29.97,WSW,244,0.0,0.0,98,0.00,,,0.00,WUHU216DAVISVP2,2013-07-27 11:12:00,
2013-07-27 07:17:00,76.1,75.5,29.96,WSW,244,0.0,0.0,98,0.00,,,0.00,WUHU216DAVISVP2,2013-07-27 11:17:00,
2013-07-27 07:22:00,76.1,75.5,29.97,WSW,244,0.0,0.0,98,0.00,,,0.00,WUHU216DAVISVP2,2013-07-27 11:22:00,
2013-07-27 07:27:00,76.1,75.5,29.97,WSW,244,0.0,0.0,98,0.00,,,0.00,WUHU216DAVISVP2,2013-07-27 11:27:00,
2013-07-27 07:32:00,76.3,75.7,29.97,WSW,244,0.0,0.0,98,0.00,,,0.00,WUHU216DAVISVP2,2013-07-27 11:32:00,
2013-07-27 07:37:00,76.3,75.7,29.97,WSW,244,0.0,0.0,98,0.00,,,0.00,WUHU216DAVISVP2,2013-07-27 11:37:00,
2013-07-27 07:42:00,76.5,76.2,29.97,WSW,244,0.0,0.0,99,0.00,,,0.00,WUHU216DAVISVP2,2013-07-27 11:42:00,
2013-07-27 07:47:00,76.7,76.4,29.97,WSW,244,0.0,0.0,99,0.00,,,0.00,WUHU216DAVISVP2,2013-07-27 11:47:00,
2013-07-27 07:52:00,76.8,76.5,29.97,WSW,244,0.0,0.0,99,0.00,,,0.00,WUHU216DAVISVP2,2013-07-27 11:52:00,
2013-07-27 07:57:00,77.0,76.7,29.97,WSW,244,0.0,0.0,99,0.00,,,0.00,WUHU216DAVISVP2,2013-07-27 11:57:00,
2013-07-27 08:02:00,77.1,76.8,29.97,WSW,244,0.0,0.0,99,0.00,,,0.00,WUHU216DAVISVP2,2013-07-27 12:02:00,
2013-07-27 08:07:00,77.3,77.0,29.98,WSW,243,0.0,0.0,99,0.00,,,0.00,WUHU216DAVISVP2,2013-07-27 12:07:00,
2013-07-27 08:12:00,77.5,77.2,29.98,WSW,243,0.0,0.0,99,0.00,,,0.00,WUHU216DAVISVP2,2013-07-27 12:12:00,
2013-07-27 08:17:00,77.6,77.3,29.98,WSW,243,0.0,0.0,99,0.00,,,0.00,WUHU216DAVISVP2,2013-07-27 12:17:00,
2013-07-27 08:22:00,77.7,77.4,29.98,WSW,243,0.0,0.0,99,0.00,,,0.00,WUHU216DAVISVP2,2013-07-27 12:22:00,
2013-07-27 08:27:00,77.8,77.5,29.98,WSW,243,0.0,0.0,99,0.00,,,0.00,WUHU216DAVISVP2,2013-07-27 12:27:00,
2013-07-27 08:32:00,77.8,77.5,29.98,WSW,239,0.0,1.0,99,0.00,,,0.00,WUHU216DAVISVP2,2013-07-27 12:32:00,
2013-07-27 08:37:00,78.0,77.7,29.98,WSW,239,0.0,1.0,99,0.00,,,0.00,WUHU216DAVISVP2,2013-07-27 12:37:00,
2013-07-27 08:42:00,78.1,77.5,29.98,WSW,239,0.0,0.0,98,0.00,,,0.00,WUHU216DAVISVP2,2013-07-27 12:42:00,
2013-07-27 08:47:00,78.1,77.5,29.98,WSW,239,0.0,0.0,98,0.00,,,0.00,WUHU216DAVISVP2,2013-07-27 12:47:00,
2013-07-27 08:53:00,78.2,77.6,29.98,WSW,239,0.0,0.0,98,0.00,,,0.00,WUHU216DAVISVP2,2013-07-27 12:53:00,
2013-07-27 08:57:00,78.3,77.7,29.98,WSW,239,0.0,0.0,98,0.00,,,0.00,WUHU216DAVISVP2,2013-07-27 12:57:00,
2013-07-27 09:02:00,78.4,77.8,29.98,WSW,242,0.0,1.0,98,0.00,,,0.00,WUHU216DAVISVP2,2013-07-27 13:02:00,
2013-07-27 09:07:00,78.6,77.7,29.98,SW,236,0.0,1.0,97,0.00,,,0.00,WUHU216DAVISVP2,2013-07-27 13:07:00,
2013-07-27 09:12:00,78.8,77.9,29.98,SW,236,0.0,1.0,97,0.00,,,0.00,WUHU216DAVISVP2,2013-07-27 13:12:00,
2013-07-27 09:17:00,79.0,77.7,29.98,SW,236,0.0,1.0,96,0.00,,,0.00,WUHU216DAVISVP2,2013-07-27 13:17:00,
2013-07-27 09:22:00,79.2,77.6,29.98,SW,236,0.0,1.0,95,0.00,,,0.00,WUHU216DAVISVP2,2013-07-27 13:22:00,
2013-07-27 09:27:00,79.5,77.6,29.98,SW,236,0.0,1.0,94,0.00,,,0.00,WUHU216DAVISVP2,2013-07-27 13:27:00,
2013-07-27 09:32:00,79.6,77.7,29.98,WSW,237,0.0,0.0,94,0.00,,,0.00,WUHU216DAVISVP2,2013-07-27 13:32:00,
2013-07-27 09:37:00,79.7,77.5,29.98,WSW,237,0.0,0.0,93,0.00,,,0.00,WUHU216DAVISVP2,2013-07-27 13:37:00,
2013-07-27 09:42:00,79.9,77.7,29.98,WSW,237,0.0,0.0,93,0.00,,,0.00,WUHU216DAVISVP2,2013-07-27 13:42:00,
2013-07-27 09:47:00,80.1,77.5,29.98,SW,236,0.0,1.0,92,0.00,,,0.00,WUHU216DAVISVP2,2013-07-27 13:47:00,
2013-07-27 09:52:00,80.5,77.9,29.98,SW,236,0.0,1.0,92,0.00,,,0.00,WUHU216DAVISVP2,2013-07-27 13:52:00,
2013-07-27 09:57:00,80.9,78.0,29.98,SW,236,0.0,1.0,91,0.00,,,0.00,WUHU216DAVISVP2,2013-07-27 13:57:00,
2013-07-27 10:02:00,81.1,77.9,29.98,SW,236,0.0,0.0,90,0.00,,,0.00,WUHU216DAVISVP2,2013-07-27 14:02:00,
2013-07-27 10:07:00,81.3,78.1,29.98,SW,236,0.0,0.0,90,0.00,,,0.00,WUHU216DAVISVP2,2013-07-27 14:07:00,
2013-07-27 10:12:00,81.5,77.6,29.98,WSW,237,0.0,1.0,88,0.00,,,0.00,WUHU216DAVISVP2,2013-07-27 14:12:00,
2013-07-27 10:17:00,81.7,77.5,29.98,WSW,248,0.0,1.0,87,0.00,,,0.00,WUHU216DAVISVP2,2013-07-27 14:17:00,
2013-07-27 10:22:00,81.9,77.7,29.98,WSW,248,0.0,1.0,87,0.00,,,0.00,WUHU216DAVISVP2,2013-07-27 14:22:00,
2013-07-27 10:27:00,82.1,77.9,29.98,WSW,251,0.0,1.0,87,0.00,,,0.00,WUHU216DAVISVP2,2013-07-27 14:27:00,
2013-07-27 10:32:00,82.4,78.2,29.98,WSW,251,0.0,1.0,87,0.00,,,0.00,WUHU216DAVISVP2,2013-07-27 14:32:00,
2013-07-27 10:37:00,82.5,77.9,29.98,WSW,251,0.0,0.0,86,0.00,,,0.00,WUHU216DAVISVP2,2013-07-27 14:37:00,
2013-07-27 10:42:00,82.7,77.8,29.98,WSW,251,0.0,0.0,85,0.00,,,0.00,WUHU216DAVISVP2,2013-07-27 14:42:00,
2013-07-27 10:47:00,82.9,78.0,29.98,WSW,251,0.0,0.0,85,0.00,,,0.00,WUHU216DAVISVP2,2013-07-27 14:47:00,
2013-07-27 10:52:00,83.3,78.0,29.98,WSW,239,0.0,2.0,84,0.00,,,0.00,WUHU216DAVISVP2,2013-07-27 14:52:00,
2013-07-27 10:57:00,83.7,78.1,29.98,West,267,0.0,2.0,83,0.00,,,0.00,WUHU216DAVISVP2,2013-07-27 14:57:00,
2013-07-27 11:02:00,83.9,77.9,29.98,SW,219,0.0,3.0,82,0.00,,,0.00,WUHU216DAVISVP2,2013-07-27 15:02:00,
2013-07-27 11:08:00,84.2,78.2,29.98,SW,219,0.0,3.0,82,0.00,,,0.00,WUHU216DAVISVP2,2013-07-27 15:08:00,
2013-07-27 11:13:00,84.5,78.1,29.98,SW,219,0.0,1.0,81,0.00,,,0.00,WUHU216DAVISVP2,2013-07-27 15:13:00,
2013-07-27 11:17:00,84.8,78.1,29.98,WSW,253,0.0,1.0,80,0.00,,,0.00,WUHU216DAVISVP2,2013-07-27 15:17:00,
2013-07-27 11:23:00,85.1,78.0,29.98,WSW,244,0.0,1.0,79,0.00,,,0.00,WUHU216DAVISVP2,2013-07-27 15:23:00,
2013-07-27 11:28:00,85.4,77.9,29.99,WSW,258,0.0,1.0,78,0.00,,,0.00,WUHU216DAVISVP2,2013-07-27 15:28:00,
2013-07-27 11:33:00,85.7,78.2,29.99,SE,138,0.0,1.0,78,0.00,,,0.00,WUHU216DAVISVP2,2013-07-27 15:33:00,
2013-07-27 11:38:00,85.9,77.6,29.98,SE,126,0.0,1.0,76,0.00,,,0.00,WUHU216DAVISVP2,2013-07-27 15:38:00,
2013-07-27 11:43:00,86.3,78.0,29.98,SE,126,0.0,1.0,76,0.00,,,0.00,WUHU216DAVISVP2,2013-07-27 15:43:00,
2013-07-27 11:48:00,86.8,77.3,29.98,South,188,0.0,2.0,73,0.00,,,0.00,WUHU216DAVISVP2,2013-07-27 15:48:00,
2013-07-27 11:53:00,87.5,78.0,29.98,SW,224,1.0,2.0,73,0.00,,,0.00,WUHU216DAVISVP2,2013-07-27 15:53:00,
2013-07-27 11:58:00,87.8,77.9,29.98,SW,236,0.0,1.0,72,0.00,,,0.00,WUHU216DAVISVP2,2013-07-27 15:58:00,
2013-07-27 12:03:00,88.3,80.4,29.97,WSW,257,0.0,1.0,77,0.00,,,0.00,WUHU216DAVISVP2,2013-07-27 16:03:00,
2013-07-27 12:08:00,88.3,80.4,29.97,WSW,257,0.0,1.0,77,0.00,,,0.00,WUHU216DAVISVP2,2013-07-27 16:08:00,
2013-07-27 12:13:00,87.9,80.4,29.98,SSE,147,0.0,1.0,78,0.00,,,0.00,WUHU216DAVISVP2,2013-07-27 16:13:00,
2013-07-27 12:18:00,87.1,79.9,29.97,ESE,115,0.0,1.0,79,0.00,,,0.00,WUHU216DAVISVP2,2013-07-27 16:18:00,
2013-07-27 12:23:00,86.9,80.1,29.97,ESE,115,0.0,1.0,80,0.00,,,0.00,WUHU216DAVISVP2,2013-07-27 16:23:00,
2013-07-27 12:28:00,86.6,80.2,29.97,ESE,115,0.0,1.0,81,0.00,,,0.00,WUHU216DAVISVP2,2013-07-27 16:28:00,
2013-07-27 12:33:00,86.5,80.1,29.97,NNW,328,0.0,1.0,81,0.00,,,0.00,WUHU216DAVISVP2,2013-07-27 16:33:00,
2013-07-27 12:38:00,86.6,80.2,29.97,NNW,331,0.0,1.0,81,0.00,,,0.00,WUHU216DAVISVP2,2013-07-27 16:38:00,
2013-07-27 12:43:00,87.2,80.4,29.96,NW,315,0.0,1.0,80,0.00,,,0.00,WUHU216DAVISVP2,2013-07-27 16:43:00,
2013-07-27 12:48:00,87.5,80.3,29.96,NE,50,0.0,2.0,79,0.00,,,0.00,WUHU216DAVISVP2,2013-07-27 16:48:00,
2013-07-27 12:53:00,87.3,80.5,29.96,NE,50,0.0,2.0,80,0.00,,,0.00,WUHU216DAVISVP2,2013-07-27 16:53:00,
2013-07-27 12:58:00,87.2,80.0,29.96,NE,51,0.0,1.0,79,0.00,,,0.00,WUHU216DAVISVP2,2013-07-27 16:58:00,
2013-07-27 13:03:00,87.0,80.2,29.96,NE,41,0.0,1.0,80,0.00,,,0.00,WUHU216DAVISVP2,2013-07-27 17:03:00,
2013-07-27 13:08:00,87.3,80.9,29.96,NE,52,0.0,1.0,81,0.00,,,0.00,WUHU216DAVISVP2,2013-07-27 17:08:00,
2013-07-27 13:13:00,87.6,80.4,29.96,NNE,19,0.0,1.0,79,0.00,,,0.00,WUHU216DAVISVP2,2013-07-27 17:13:00,
2013-07-27 13:18:00,87.9,80.4,29.95,NE,49,0.0,1.0,78,0.00,,,0.00,WUHU216DAVISVP2,2013-07-27 17:18:00,
2013-07-27 13:23:00,87.8,80.3,29.95,West,272,0.0,1.0,78,0.00,,,0.00,WUHU216DAVISVP2,2013-07-27 17:23:00,
2013-07-27 13:28:00,87.5,79.6,29.95,WSW,238,0.0,1.0,77,0.00,,,0.00,WUHU216DAVISVP2,2013-07-27 17:28:00,
2013-07-27 13:33:00,86.9,79.0,29.95,WSW,238,0.0,1.0,77,0.00,,,0.00,WUHU216DAVISVP2,2013-07-27 17:33:00,
2013-07-27 13:38:00,85.9,76.1,29.95,WSW,238,0.0,1.0,72,0.00,,,0.00,WUHU216DAVISVP2,2013-07-27 17:38:00,
2013-07-27 13:43:00,85.2,76.2,29.95,WSW,239,0.0,1.0,74,0.00,,,0.00,WUHU216DAVISVP2,2013-07-27 17:43:00,
2013-07-27 13:48:00,84.8,76.2,29.95,WSW,238,0.0,1.0,75,0.00,,,0.00,WUHU216DAVISVP2,2013-07-27 17:48:00,
2013-07-27 13:53:00,84.7,76.1,29.95,WSW,239,0.0,0.0,75,0.00,,,0.00,WUHU216DAVISVP2,2013-07-27 17:53:00,
2013-07-27 13:58:00,84.6,75.6,29.94,WSW,239,0.0,1.0,74,0.00,,,0.00,WUHU216DAVISVP2,2013-07-27 17:58:00,
2013-07-27 14:03:00,84.7,74.9,29.94,WSW,239,0.0,1.0,72,0.00,,,0.00,WUHU216DAVISVP2,2013-07-27 18:03:00,
2013-07-27 14:08:00,84.9,78.9,29.94,ESE,119,0.0,1.0,82,0.00,,,0.00,WUHU216DAVISVP2,2013-07-27 18:08:00,
2013-07-27 14:13:00,85.0,79.3,29.94,SSW,192,0.0,1.0,83,0.00,,,0.00,WUHU216DAVISVP2,2013-07-27 18:13:00,
2013-07-27 14:18:00,84.8,79.5,29.94,SSE,165,0.0,1.0,84,0.00,,,0.00,WUHU216DAVISVP2,2013-07-27 18:18:00,
2013-07-27 14:23:00,84.9,79.6,29.93,SE,140,0.0,1.0,84,0.00,,,0.00,WUHU216DAVISVP2,2013-07-27 18:23:00,
2013-07-27 14:28:00,85.1,79.4,29.93,ESE,111,0.0,1.0,83,0.00,,,0.00,WUHU216DAVISVP2,2013-07-27 18:28:00,
2013-07-27 14:33:00,85.4,79.4,29.93,ESE,110,0.0,1.0,82,0.00,,,0.00,WUHU216DAVISVP2,2013-07-27 18:33:00,
2013-07-27 14:38:00,86.0,80.3,29.93,ESE,110,2.0,2.0,83,0.00,,,0.00,WUHU216DAVISVP2,2013-07-27 18:38:00,
2013-07-27 14:43:00,86.3,79.9,29.93,East,89,0.0,2.0,81,0.00,,,0.00,WUHU216DAVISVP2,2013-07-27 18:43:00,
2013-07-27 14:48:00,86.5,80.1,29.93,ENE,67,0.0,2.0,81,0.00,,,0.00,WUHU216DAVISVP2,2013-07-27 18:48:00,
2013-07-27 14:53:00,86.6,80.2,29.92,NE,44,0.0,1.0,81,0.00,,,0.00,WUHU216DAVISVP2,2013-07-27 18:53:00,
2013-07-27 14:58:00,86.8,80.0,29.92,NE,38,0.0,1.0,80,0.00,,,0.00,WUHU216DAVISVP2,2013-07-27 18:58:00,
2013-07-27 15:03:00,87.2,80.4,29.92,North,350,0.0,1.0,80,0.00,,,0.00,WUHU216DAVISVP2,2013-07-27 19:03:00,
2013-07-27 15:08:00,87.7,80.5,29.92,WSW,246,0.0,2.0,79,0.00,,,0.00,WUHU216DAVISVP2,2013-07-27 19:08:00,
2013-07-27 15:13:00,87.8,80.3,29.92,NE,53,2.0,3.0,78,0.00,,,0.00,WUHU216DAVISVP2,2013-07-27 19:13:00,
2013-07-27 15:18:00,87.5,79.6,29.92,NNE,26,0.0,3.0,77,0.00,,,0.00,WUHU216DAVISVP2,2013-07-27 19:18:00,
2013-07-27 15:23:00,87.0,79.1,29.92,NE,34,0.0,2.0,77,0.00,,,0.00,WUHU216DAVISVP2,2013-07-27 19:23:00,
2013-07-27 15:28:00,86.6,79.5,29.92,NE,35,0.0,1.0,79,0.00,,,0.00,WUHU216DAVISVP2,2013-07-27 19:28:00,
2013-07-27 15:33:00,86.8,80.0,29.91,North,11,0.0,2.0,80,0.00,,,0.00,WUHU216DAVISVP2,2013-07-27 19:33:00,
2013-07-27 15:38:00,87.2,80.0,29.91,SSW,211,0.0,6.0,79,0.00,,,0.00,WUHU216DAVISVP2,2013-07-27 19:38:00,
2013-07-27 15:43:00,87.2,79.7,29.91,ENE,77,1.0,6.0,78,0.00,,,0.00,WUHU216DAVISVP2,2013-07-27 19:43:00,
2013-07-27 15:48:00,86.9,79.8,29.90,ENE,71,0.0,2.0,79,0.00,,,0.00,WUHU216DAVISVP2,2013-07-27 19:48:00,
2013-07-27 15:53:00,87.0,80.6,29.90,ENE,70,0.0,1.0,81,0.00,,,0.00,WUHU216DAVISVP2,2013-07-27 19:53:00,
2013-07-27 15:58:00,87.2,80.0,29.90,East,96,0.0,3.0,79,0.00,,,0.00,WUHU216DAVISVP2,2013-07-27 19:58:00,
2013-07-27 16:03:00,86.8,80.0,29.90,ENE,71,0.0,3.0,80,0.00,,,0.00,WUHU216DAVISVP2,2013-07-27 20:03:00,
2013-07-27 16:08:00,86.5,80.1,29.89,ENE,69,1.0,3.0,81,0.00,,,0.00,WUHU216DAVISVP2,2013-07-27 20:08:00,
2013-07-27 16:13:00,86.1,80.1,29.89,ENE,57,0.0,4.0,82,0.00,,,0.00,WUHU216DAVISVP2,2013-07-27 20:13:00,
2013-07-27 16:18:00,86.2,80.2,29.89,NW,317,0.0,4.0,82,0.00,,,0.00,WUHU216DAVISVP2,2013-07-27 20:18:00,
2013-07-27 16:23:00,86.1,79.7,29.89,ENE,69,1.0,3.0,81,0.00,,,0.00,WUHU216DAVISVP2,2013-07-27 20:23:00,
2013-07-27 16:28:00,85.5,79.1,29.90,East,87,0.0,3.0,81,0.00,,,0.00,WUHU216DAVISVP2,2013-07-27 20:28:00,
2013-07-27 16:33:00,85.0,79.0,29.89,ENE,78,0.0,3.0,82,0.00,,,0.00,WUHU216DAVISVP2,2013-07-27 20:33:00,
2013-07-27 16:38:00,85.1,79.1,29.89,ENE,74,0.0,4.0,82,0.00,,,0.00,WUHU216DAVISVP2,2013-07-27 20:38:00,
2013-07-27 16:43:00,85.2,79.2,29.89,East,92,0.0,4.0,82,0.00,,,0.00,WUHU216DAVISVP2,2013-07-27 20:43:00,
2013-07-27 16:48:00,84.7,78.7,29.89,East,80,0.0,4.0,82,0.00,,,0.00,WUHU216DAVISVP2,2013-07-27 20:48:00,
2013-07-27 16:53:00,84.3,78.7,29.89,ENE,66,0.0,4.0,83,0.00,,,0.00,WUHU216DAVISVP2,2013-07-27 20:53:00,
2013-07-27 16:58:00,84.3,79.0,29.89,ENE,63,1.0,4.0,84,0.00,,,0.00,WUHU216DAVISVP2,2013-07-27 20:58:00,
2013-07-27 17:03:00,84.2,79.3,29.90,East,95,0.0,2.0,85,0.00,,,0.00,WUHU216DAVISVP2,2013-07-27 21:03:00,
2013-07-27 17:08:00,84.3,79.0,29.90,West,279,0.0,1.0,84,0.00,,,0.00,WUHU216DAVISVP2,2013-07-27 21:08:00,
2013-07-27 17:13:00,84.2,78.6,29.90,SW,233,0.0,5.0,83,0.00,,,0.00,WUHU216DAVISVP2,2013-07-27 21:13:00,
2013-07-27 17:18:00,84.1,78.8,29.90,East,81,0.0,5.0,84,0.00,,,0.00,WUHU216DAVISVP2,2013-07-27 21:18:00,
2013-07-27 17:23:00,84.1,78.8,29.90,ENE,73,0.0,2.0,84,0.00,,,0.00,WUHU216DAVISVP2,2013-07-27 21:23:00,
2013-07-27 17:28:00,84.1,78.8,29.90,WSW,258,0.0,4.0,84,0.00,,,0.00,WUHU216DAVISVP2,2013-07-27 21:28:00,
2013-07-27 17:33:00,84.0,78.4,29.90,South,170,0.0,4.0,83,0.00,,,0.00,WUHU216DAVISVP2,2013-07-27 21:33:00,
2013-07-27 17:38:00,83.8,78.5,29.90,ESE,108,0.0,1.0,84,0.00,,,0.00,WUHU216DAVISVP2,2013-07-27 21:38:00,
2013-07-27 17:43:00,83.5,78.2,29.90,ENE,65,0.0,3.0,84,0.00,,,0.00,WUHU216DAVISVP2,2013-07-27 21:43:00,
2013-07-27 17:48:00,83.3,78.4,29.89,ENE,65,0.0,3.0,85,0.00,,,0.00,WUHU216DAVISVP2,2013-07-27 21:48:00,
2013-07-27 17:53:00,83.2,77.9,29.89,ENE,75,0.0,2.0,84,0.00,,,0.00,WUHU216DAVISVP2,2013-07-27 21:53:00,
2013-07-27 17:58:00,83.0,78.1,29.89,NE,47,0.0,3.0,85,0.00,,,0.00,WUHU216DAVISVP2,2013-07-27 21:58:00,
2013-07-27 18:03:00,83.0,78.1,29.91,NE,47,0.0,3.0,85,0.00,,,0.00,WUHU216DAVISVP2,2013-07-27 22:03:00,
2013-07-27 18:08:00,83.0,78.1,29.91,NW,326,0.0,1.0,85,0.00,,,0.00,WUHU216DAVISVP2,2013-07-27 22:08:00,
2013-07-27 18:13:00,82.9,78.0,29.91,NW,326,0.0,1.0,85,0.00,,,0.00,WUHU216DAVISVP2,2013-07-27 22:13:00,
2013-07-27 18:18:00,82.9,78.0,29.91,NW,325,0.0,1.0,85,0.00,,,0.00,WUHU216DAVISVP2,2013-07-27 22:18:00,
2013-07-27 18:23:00,82.9,78.3,29.94,SW,232,2.0,2.0,86,0.00,,,0.00,WUHU216DAVISVP2,2013-07-27 22:23:00,
2013-07-27 18:28:00,82.6,77.3,29.95,WNW,298,2.0,9.0,84,0.00,,,0.00,WUHU216DAVISVP2,2013-07-27 22:28:00,
2013-07-27 18:33:00,81.3,74.7,29.95,West,268,3.0,11.0,80,0.00,,,0.00,WUHU216DAVISVP2,2013-07-27 22:33:00,
2013-07-27 18:38:00,79.8,74.2,29.95,West,275,0.0,11.0,83,0.00,,,0.00,WUHU216DAVISVP2,2013-07-27 22:38:00,
2013-07-27 18:43:00,79.0,74.2,29.95,West,277,0.0,6.0,85,0.00,,,0.00,WUHU216DAVISVP2,2013-07-27 22:43:00,
2013-07-27 18:48:00,78.6,74.4,29.95,West,277,0.0,1.0,87,0.00,,,0.00,WUHU216DAVISVP2,2013-07-27 22:48:00,
2013-07-27 18:53:00,78.3,74.5,29.95,SW,234,0.0,1.0,88,0.00,,,0.00,WUHU216DAVISVP2,2013-07-27 22:53:00,
2013-07-27 18:58:00,78.1,74.3,29.94,WNW,297,0.0,1.0,88,0.00,,,0.00,WUHU216DAVISVP2,2013-07-27 22:58:00,
2013-07-27 19:03:00,77.9,74.4,29.95,WNW,294,0.0,1.0,89,0.00,,,0.00,WUHU216DAVISVP2,2013-07-27 23:03:00,
2013-07-27 19:08:00,77.8,74.3,29.95,WNW,294,0.0,1.0,89,0.00,,,0.00,WUHU216DAVISVP2,2013-07-27 23:08:00,
2013-07-27 19:13:00,77.6,74.1,29.95,WNW,294,0.0,0.0,89,0.00,,,0.00,WUHU216DAVISVP2,2013-07-27 23:13:00,
2013-07-27 19:18:00,77.4,74.2,29.95,WNW,294,0.0,1.0,90,0.00,,,0.00,WUHU216DAVISVP2,2013-07-27 23:18:00,
2013-07-27 19:23:00,77.2,74.0,29.94,WNW,296,0.0,1.0,90,0.00,,,0.00,WUHU216DAVISVP2,2013-07-27 23:23:00,
2013-07-27 19:28:00,77.1,73.6,29.94,WNW,296,0.0,1.0,89,0.00,,,0.00,WUHU216DAVISVP2,2013-07-27 23:28:00,
2013-07-27 19:33:00,77.0,73.8,29.95,West,263,0.0,1.0,90,0.00,,,0.00,WUHU216DAVISVP2,2013-07-27 23:33:00,
2013-07-27 19:38:00,76.9,73.7,29.94,West,264,0.0,1.0,90,0.00,,,0.00,WUHU216DAVISVP2,2013-07-27 23:38:00,
2013-07-27 19:43:00,76.9,73.4,29.94,West,264,0.0,0.0,89,0.00,,,0.00,WUHU216DAVISVP2,2013-07-27 23:43:00,
2013-07-27 19:48:00,76.8,73.3,29.94,West,264,0.0,0.0,89,0.00,,,0.00,WUHU216DAVISVP2,2013-07-27 23:48:00,
2013-07-27 19:53:00,76.9,73.4,29.94,West,264,0.0,0.0,89,0.00,,,0.00,WUHU216DAVISVP2,2013-07-27 23:53:00,
2013-07-27 19:58:00,77.0,73.8,29.93,West,264,0.0,0.0,90,0.00,,,0.00,WUHU216DAVISVP2,2013-07-27 23:58:00,
2013-07-27 20:03:00,77.2,74.0,29.93,West,264,0.0,0.0,90,0.00,,,0.00,WUHU216DAVISVP2,2013-07-28 00:03:00,
2013-07-27 20:08:00,77.3,74.1,29.93,West,264,0.0,0.0,90,0.00,,,0.00,WUHU216DAVISVP2,2013-07-28 00:08:00,
2013-07-27 20:13:00,77.3,74.1,29.93,West,264,0.0,0.0,90,0.00,,,0.00,WUHU216DAVISVP2,2013-07-28 00:13:00,
2013-07-27 20:18:00,77.3,73.8,29.93,West,263,0.0,0.0,89,0.00,,,0.00,WUHU216DAVISVP2,2013-07-28 00:18:00,
2013-07-27 20:23:00,77.3,73.8,29.93,West,263,0.0,0.0,89,0.00,,,0.00,WUHU216DAVISVP2,2013-07-28 00:23:00,
2013-07-27 20:28:00,77.2,73.7,29.93,West,263,0.0,0.0,89,0.00,,,0.00,WUHU216DAVISVP2,2013-07-28 00:28:00,
2013-07-27 20:33:00,77.2,74.0,29.93,West,263,0.0,0.0,90,0.00,,,0.00,WUHU216DAVISVP2,2013-07-28 00:33:00,
2013-07-27 20:38:00,77.1,73.9,29.93,West,263,0.0,0.0,90,0.00,,,0.00,WUHU216DAVISVP2,2013-07-28 00:38:00,
2013-07-27 20:43:00,77.1,73.9,29.93,West,263,0.0,0.0,90,0.00,,,0.00,WUHU216DAVISVP2,2013-07-28 00:43:00,
2013-07-27 20:48:00,77.0,73.8,29.93,West,263,0.0,0.0,90,0.00,,,0.00,WUHU216DAVISVP2,2013-07-28 00:48:00,
2013-07-27 20:53:00,76.9,73.7,29.93,West,263,0.0,0.0,90,0.00,,,0.00,WUHU216DAVISVP2,2013-07-28 00:53:00,
2013-07-27 20:58:00,76.8,73.6,29.93,West,263,0.0,0.0,90,0.00,,,0.00,WUHU216DAVISVP2,2013-07-28 00:58:00,
2013-07-27 21:03:00,76.7,73.5,29.93,West,263,0.0,0.0,90,0.00,,,0.00,WUHU216DAVISVP2,2013-07-28 01:03:00,
2013-07-27 21:08:00,76.7,73.5,29.93,West,263,0.0,0.0,90,0.00,,,0.00,WUHU216DAVISVP2,2013-07-28 01:08:00,
2013-07-27 21:13:00,76.6,73.8,29.93,West,263,0.0,0.0,91,0.00,,,0.00,WUHU216DAVISVP2,2013-07-28 01:13:00,
2013-07-27 21:18:00,76.6,73.8,29.93,West,263,0.0,0.0,91,0.00,,,0.00,WUHU216DAVISVP2,2013-07-28 01:18:00,
2013-07-27 21:23:00,76.7,73.9,29.94,West,263,0.0,0.0,91,0.00,,,0.00,WUHU216DAVISVP2,2013-07-28 01:23:00,
2013-07-27 21:28:00,76.7,73.9,29.94,West,263,0.0,0.0,91,0.00,,,0.00,WUHU216DAVISVP2,2013-07-28 01:28:00,
2013-07-27 21:33:00,76.6,73.8,29.94,West,263,0.0,0.0,91,0.00,,,0.00,WUHU216DAVISVP2,2013-07-28 01:33:00,
2013-07-27 21:38:00,76.6,73.8,29.93,West,263,0.0,0.0,91,0.00,,,0.00,WUHU216DAVISVP2,2013-07-28 01:38:00,
2013-07-27 21:43:00,76.5,74.0,29.94,West,263,0.0,0.0,92,0.00,,,0.00,WUHU216DAVISVP2,2013-07-28 01:43:00,
2013-07-27 21:48:00,76.5,74.0,29.94,West,263,0.0,0.0,92,0.00,,,0.00,WUHU216DAVISVP2,2013-07-28 01:48:00,
2013-07-27 21:53:00,76.5,74.0,29.94,West,263,0.0,0.0,92,0.00,,,0.00,WUHU216DAVISVP2,2013-07-28 01:53:00,
2013-07-27 21:58:00,76.4,73.9,29.94,West,263,0.0,0.0,92,0.00,,,0.00,WUHU216DAVISVP2,2013-07-28 01:58:00,
2013-07-27 22:03:00,76.4,73.9,29.94,West,263,0.0,0.0,92,0.00,,,0.00,WUHU216DAVISVP2,2013-07-28 02:03:00,
2013-07-27 22:08:00,76.4,73.9,29.94,West,263,0.0,0.0,92,0.00,,,0.00,WUHU216DAVISVP2,2013-07-28 02:08:00,
2013-07-27 22:13:00,76.4,73.9,29.94,West,263,0.0,0.0,92,0.00,,,0.00,WUHU216DAVISVP2,2013-07-28 02:13:00,
2013-07-27 22:18:00,76.5,74.3,29.94,West,263,0.0,0.0,93,0.00,,,0.00,WUHU216DAVISVP2,2013-07-28 02:18:00,
2013-07-27 22:23:00,76.5,74.3,29.94,West,263,0.0,0.0,93,0.00,,,0.00,WUHU216DAVISVP2,2013-07-28 02:23:00,
2013-07-27 22:28:00,76.5,74.3,29.94,West,263,0.0,0.0,93,0.00,,,0.00,WUHU216DAVISVP2,2013-07-28 02:28:00,
2013-07-27 22:33:00,76.6,74.4,29.94,West,263,0.0,0.0,93,0.00,,,0.00,WUHU216DAVISVP2,2013-07-28 02:33:00,
2013-07-27 22:38:00,76.5,74.6,29.94,West,263,0.0,0.0,94,0.00,,,0.00,WUHU216DAVISVP2,2013-07-28 02:38:00,
2013-07-27 22:43:00,76.6,74.7,29.94,West,263,0.0,0.0,94,0.00,,,0.00,WUHU216DAVISVP2,2013-07-28 02:43:00,
2013-07-27 22:48:00,76.6,74.7,29.94,West,263,0.0,0.0,94,0.00,,,0.00,WUHU216DAVISVP2,2013-07-28 02:48:00,
2013-07-27 22:53:00,76.5,74.6,29.94,West,263,0.0,0.0,94,0.00,,,0.00,WUHU216DAVISVP2,2013-07-28 02:53:00,
2013-07-27 22:58:00,76.5,74.6,29.94,West,263,0.0,0.0,94,0.00,,,0.00,WUHU216DAVISVP2,2013-07-28 02:58:00,
2013-07-27 23:03:00,76.5,74.6,29.94,West,263,0.0,0.0,94,0.00,,,0.00,WUHU216DAVISVP2,2013-07-28 03:03:00,
2013-07-27 23:08:00,76.5,74.6,29.94,West,263,0.0,0.0,94,0.00,,,0.00,WUHU216DAVISVP2,2013-07-28 03:08:00,
2013-07-27 23:13:00,76.5,74.6,29.94,West,263,0.0,0.0,94,0.00,,,0.00,WUHU216DAVISVP2,2013-07-28 03:13:00,
2013-07-27 23:18:00,76.5,74.9,29.94,West,263,0.0,0.0,95,0.00,,,0.00,WUHU216DAVISVP2,2013-07-28 03:18:00,
2013-07-27 23:23:00,76.5,74.9,29.94,West,263,0.0,0.0,95,0.00,,,0.00,WUHU216DAVISVP2,2013-07-28 03:23:00,
2013-07-27 23:28:00,76.5,74.9,29.94,West,263,0.0,0.0,95,0.00,,,0.00,WUHU216DAVISVP2,2013-07-28 03:28:00,
2013-07-27 23:33:00,76.5,74.9,29.94,West,263,0.0,0.0,95,0.00,,,0.00,WUHU216DAVISVP2,2013-07-28 03:33:00,
2013-07-27 23:38:00,76.5,74.9,29.94,West,263,0.0,0.0,95,0.00,,,0.00,WUHU216DAVISVP2,2013-07-28 03:38:00,
2013-07-27 23:43:00,76.5,74.9,29.94,West,263,0.0,0.0,95,0.00,,,0.00,WUHU216DAVISVP2,2013-07-28 03:43:00,
2013-07-27 23:48:00,76.6,75.0,29.94,West,263,0.0,0.0,95,0.00,,,0.00,WUHU216DAVISVP2,2013-07-28 03:48:00,
2013-07-27 23:53:00,76.7,75.1,29.94,West,263,0.0,0.0,95,0.00,,,0.00,WUHU216DAVISVP2,2013-07-28 03:53:00,
2013-07-27 23:58:00,76.8,75.2,29.94,West,263,0.0,0.0,95,0.00,,,0.00,WUHU216DAVISVP2,2013-07-28 03:58:00,